createdAt,value
2022-11-17T10:40:39.854Z,2640
2022-11-17T10:41:38.676Z,2552
2022-11-17T10:42:38.890Z,2368
2022-11-17T10:43:40.512Z,2308
2022-11-17T10:44:38.951Z,2392
2022-11-17T10:45:38.719Z,2228
2022-11-17T10:46:59.020Z,2272
2022-11-17T10:47:38.945Z,2436
2022-11-17T10:48:39.211Z,2492
2022-11-17T10:49:38.984Z,2372
2022-11-17T10:50:38.703Z,2284
2022-11-17T10:51:39.403Z,2596
2022-11-17T10:52:39.287Z,2480
2022-11-17T10:53:48.835Z,2340
2022-11-17T10:54:38.723Z,2472
2022-11-17T10:55:38.971Z,2536
2022-11-17T10:56:40.071Z,2632
2022-11-17T10:57:39.010Z,2708
2022-11-17T10:58:38.950Z,2720
2022-11-17T10:59:39.017Z,2656
2022-11-17T11:00:39.420Z,2640
2022-11-17T11:01:39.334Z,2684
2022-11-17T11:02:38.779Z,2744
2022-11-17T11:03:40.515Z,2840
2022-11-17T11:04:38.798Z,2944
2022-11-17T11:05:39.289Z,2780
2022-11-17T11:06:39.576Z,2984
2022-11-17T11:07:39.458Z,2740
2022-11-17T11:08:38.793Z,2704
2022-11-17T11:09:39.335Z,2552
2022-11-17T11:10:39.547Z,2508
2022-11-17T11:11:43.769Z,2408
2022-11-17T11:12:39.687Z,2408
2022-11-17T11:13:39.112Z,2548
2022-11-17T11:14:40.782Z,2684
2022-11-17T11:15:39.274Z,2692
2022-11-17T11:16:42.482Z,2604
2022-11-17T11:17:39.121Z,2392
2022-11-17T11:18:39.093Z,2296
2022-11-17T11:19:39.409Z,2076
2022-11-17T11:20:39.731Z,1716
2022-11-17T11:21:39.149Z,1552
2022-11-17T11:22:39.389Z,1324
2022-11-17T11:23:39.640Z,1244
2022-11-17T11:24:39.171Z,1208
2022-11-17T11:25:39.124Z,1152
2022-11-17T11:26:39.025Z,1168
2022-11-17T11:27:41.003Z,1064
2022-11-17T11:28:47.079Z,1200
2022-11-17T11:29:39.340Z,1212
2022-11-17T11:30:39.845Z,1256
2022-11-17T11:31:38.923Z,1300
2022-11-17T11:32:38.972Z,1208
2022-11-17T11:33:39.160Z,1332
2022-11-17T11:34:39.200Z,1508
2022-11-17T11:35:39.223Z,1604
2022-11-17T11:36:38.926Z,1552
2022-11-17T11:37:39.442Z,1580
2022-11-17T11:38:39.223Z,1624
2022-11-17T11:39:38.982Z,1604
2022-11-17T11:40:39.523Z,1656
2022-11-17T11:41:39.256Z,1812
2022-11-17T11:42:39.904Z,1952
2022-11-17T11:43:39.880Z,2268
2022-11-17T11:44:40.576Z,2392
2022-11-17T11:45:38.982Z,2520
2022-11-17T11:46:39.951Z,2704
2022-11-17T11:47:39.629Z,2824
2022-11-17T11:48:39.036Z,2576
2022-11-17T11:49:39.663Z,2596
2022-11-17T11:50:46.258Z,2920
2022-11-17T11:51:39.061Z,3220
2022-11-17T11:52:39.022Z,3784
2022-11-17T11:53:39.280Z,4172
2022-11-17T11:54:51.138Z,4448
2022-11-17T11:55:39.923Z,5088
2022-11-17T11:56:39.020Z,5336
2022-11-17T11:57:39.848Z,5384
2022-11-17T11:58:39.830Z,4172
2022-11-17T11:59:40.321Z,4288
2022-11-17T12:00:40.238Z,4092
2022-11-17T12:01:39.321Z,3820
2022-11-17T12:02:40.007Z,3240
2022-11-17T12:03:40.672Z,2800
2022-11-17T12:04:39.158Z,2964
2022-11-17T12:05:39.604Z,3176
2022-11-17T12:06:39.623Z,3500
2022-11-17T12:07:39.876Z,4544
2022-11-17T12:08:39.674Z,5200
2022-11-17T12:09:39.874Z,5552
2022-11-17T12:10:39.500Z,5144
2022-11-17T12:11:39.645Z,5160
2022-11-17T12:12:39.677Z,5008
2022-11-17T12:13:54.260Z,4564
2022-11-17T12:14:39.667Z,4132
2022-11-17T12:15:39.935Z,3336
2022-11-17T12:16:39.820Z,3344
2022-11-17T12:17:39.788Z,3552
2022-11-17T12:18:39.165Z,3252
2022-11-17T12:19:39.909Z,2960
2022-11-17T12:20:39.618Z,3192
2022-11-17T12:21:40.025Z,3276
2022-11-17T12:22:39.801Z,3272
2022-11-17T12:23:40.308Z,3148
2022-11-17T12:24:40.234Z,3116
